Terminal Aerodrome Forecast
Issued by NWS Charleston, WV

Home | Current Version | Previous Version | Text Only | Print | Product List | Glossary On
Versions: 1 2 3 4 5 6 7 8 9 10 11 12 13 14 15 16 17 18 19 20 21 22 23 24 25 26 27 28
000
FTUS41 KRLX 051739
TAFBKW
TAF
KBKW 051739Z 0518/0618 12007KT P6SM VCTS BKN025CB
     FM051900 12007KT 6SM SHRA VCTS OVC025CB
      TEMPO 0519/0521 2SM TSRA OVC015CB
     FM060000 11006KT 3SM SHRA OVC010
     FM060500 16004KT 4SM BR OVC007
     FM061500 26005KT 6SM SHRA BR BKN010=

USA.gov is the U.S. government's official web portal to all federal, state and local government web resources and services.